EW3871 Weather Reports


Display with metric or nautical units.
time (UTC)temp
F
wind
direction
speed
MPH
gust
MPH
rain 1hr
in
rain 24hr
in
rain mn
in
humidity
%
barometer
mb
20220529120105 80 285 3.0 5.0 0.00 0.00 0.00 46 1005.4
20220529114634 80 241 0.0 4.0 0.00 0.00 0.00 46 1005.5
20220529113056 78 269 2.0 8.0 0.00 0.00 0.00 49 1005.7
20220529111601 80 298 1.0 4.0 0.00 0.00 0.00 47 1005.9
20220529110051 77 293 3.0 6.0 0.00 0.00 0.00 49 1006.1
20220529104547 77 131 0.0 6.0 0.00 0.00 0.00 49 1006.4
20220529103045 78 247 2.0 4.0 0.00 0.00 0.00 50 1006.6
20220529101542 75 323 1.0 5.0 0.00 0.00 0.00 53 1006.7
20220529100102 76 323 0.0 3.0 0.00 0.00 0.00 54 1006.9
20220529094539 75 137 3.0 6.0 0.00 0.00 0.00 56 1006.9
20220529093040 74 197 3.0 5.0 0.00 0.00 0.00 58 1007.0
20220529091543 73 223 1.0 4.0 0.00 0.00 0.00 58 1006.9
20220529090036 72 285 4.0 6.0 0.00 0.00 0.00 60 1007.1
20220529084534 72 205 1.0 4.0 0.00 0.00 0.00 60 1007.1
20220529083039 71 262 3.0 5.0 0.00 0.00 0.00 62 1007.2
20220529081545 70 284 1.0 5.0 0.00 0.00 0.00 63 1007.4
20220529080036 71 276 1.0 4.0 0.00 0.00 0.00 63 1007.5
20220529074530 68 306 2.0 4.0 0.00 0.00 0.00 67 1007.6
20220529073026 67 302 3.0 6.0 0.00 0.00 0.00 68 1007.6
20220529071526 67 297 2.0 5.0 0.00 0.00 0.00 69 1007.5
20220529070026 66 303 2.0 6.0 0.00 0.00 0.00 71 1007.5
20220529064527 67 315 3.0 6.0 0.00 0.00 0.00 70 1007.5
20220529063030 67 290 0.0 3.0 0.00 0.00 0.00 71 1007.5
20220529061520 67 289 0.0 0.0 0.00 0.00 0.00 70 1007.4
20220529060027 65 264 0.0 0.0 0.00 0.00 0.00 72 1007.3
20220529054523 65 136 0.0 1.0 0.00 0.00 0.00 72 1007.2
20220529053019 65 115 0.0 0.0 0.00 0.00 0.00 72 1007.2
20220529051521 0 0.0 0.0 0.00 0.00 0.00 1007.3
20220529050015 0 0.0 0.0 0.00 0.00 0.00 1007.1
20220529044514 0 0.0 0.0 0.00 0.00 0.00 1007.1
20220529043003 0 0.0 0.0 0.00 0.00 0.00 1006.9
20220529041603 0 0.0 0.0 0.00 0.00 0.00 1007.0
20220529040056 59 161 0.0 0.0 0.00 0.00 0.00 81 1006.8
20220529034555 60 163 0.0 0.0 0.00 0.00 0.00 82 1006.7
20220529033052 60 170 0.0 0.0 0.00 0.00 0.00 82 1006.8
20220529031555 60 170 0.0 0.0 0.00 0.00 0.00 83 1006.8
20220529030106 60 134 0.0 0.0 0.00 0.00 0.00 82 1006.7
20220529024601 61 134 0.0 0.0 0.00 0.00 0.00 82 1006.7
20220529023052 61 134 1.0 2.0 0.00 0.00 0.00 83 1006.6
20220529021554 61 133 0.0 0.0 0.00 0.00 0.00 83 1006.7
20220529020053 61 132 1.0 2.0 0.00 0.00 0.00 82 1006.7
20220529014603 63 107 0.0 0.0 0.00 0.00 0.00 79 1006.8
20220529013046 63 86 0.0 0.0 0.00 0.00 0.00 78 1006.7
20220529011539 63 84 2.0 5.0 0.00 0.00 0.00 78 1006.7
20220529010036 63 73 2.0 5.0 0.00 0.00 0.00 77 1006.8
20220529004534 64 82 2.0 5.0 0.00 0.00 0.00 77 1006.8
20220529003040 65 75 0.0 4.0 0.00 0.00 0.00 75 1006.7
20220529001528 65 120 2.0 4.0 0.00 0.00 0.00 75 1006.7
20220529000026 66 71 3.0 9.0 0.00 0.00 0.00 73 1006.7
20220528234528 66 82 1.0 4.0 0.00 0.00 0.00 74 1006.7
20220528233021 66 79 3.0 5.0 0.00 0.00 0.00 73 1006.6
20220528231521 66 79 0.0 4.0 0.00 0.00 0.00 74 1006.5
20220528230018 68 83 0.0 3.0 0.00 0.00 0.00 71 1006.6
20220528224524 69 72 3.0 5.0 0.00 0.00 0.00 69 1006.5
20220528223013 69 76 2.0 4.0 0.00 0.00 0.00 68 1006.6
20220528221510 71 48 0.0 2.0 0.00 0.00 0.00 64 1006.6
20220528220005 72 84 0.0 0.0 0.00 0.00 0.00 60 1006.6
20220528214501 73 83 0.0 0.0 0.00 0.00 0.00 60 1006.5
20220528213101 74 222 0.0 5.0 0.00 0.00 0.00 57 1006.6
20220528211607 75 179 4.0 6.0 0.00 0.00 0.00 55 1006.7
20220528210050 75 211 0.0 6.0 0.00 0.00 0.00 54 1006.7
20220528204544 76 155 2.0 6.0 0.00 0.00 0.00 51 1006.8
20220528203039 77 152 2.0 6.0 0.00 0.00 0.00 48 1006.6
20220528201534 76 136 1.0 3.0 0.00 0.00 0.00 53 1006.5
20220528200030 78 150 2.0 2.0 0.00 0.00 0.00 51 1006.4
20220528194529 82 207 1.0 3.0 0.00 0.00 0.00 40 1006.4
20220528193035 83 281 2.0 3.0 0.00 0.00 0.00 35 1006.4
20220528191516 84 281 2.0 3.0 0.00 0.00 0.00 35 1006.4
20220528190012 85 281 2.0 4.0 0.00 0.00 0.00 35 1006.4
20220528184512 86 281 2.0 3.0 0.00 0.00 0.00 36 1006.6
20220528183003 87 280 2.0 4.0 0.00 0.00 0.00 35 1006.5
20220528181606 88 285 3.0 4.0 0.00 0.00 0.00 35 1006.6
20220528180102 88 276 4.0 5.0 0.00 0.00 0.00 33 1006.7
20220528174552 89 271 5.0 10.0 0.00 0.00 0.00 31 1006.8
20220528173045 89 279 6.0 8.0 0.00 0.00 0.00 28 1006.9
20220528171541 89 282 5.0 10.0 0.00 0.00 0.00 31 1006.9
20220528170043 89 297 5.0 12.0 0.00 0.00 0.00 31 1007.0
20220528164535 89 278 9.0 13.0 0.00 0.00 0.00 29 1007.3
20220528163028 90 266 6.0 13.0 0.00 0.00 0.00 29 1007.5
20220528161532 89 268 6.0 12.0 0.00 0.00 0.00 31 1007.7
20220528160019 89 262 8.0 12.0 0.00 0.00 0.00 30 1007.9
20220528154524 89 274 11.0 15.0 0.00 0.00 0.00 29 1008.1
20220528153009 89 277 8.0 15.0 0.00 0.00 0.00 28 1008.4
20220528151510 89 264 7.0 15.0 0.00 0.00 0.00 30 1008.6
20220528150100 88 281 6.0 12.0 0.00 0.00 0.00 31 1008.7
20220528144558 88 262 5.0 10.0 0.00 0.00 0.00 34 1009.0
20220528143050 87 291 10.0 15.0 0.00 0.00 0.00 35 1009.3
20220528141549 87 269 9.0 16.0 0.00 0.00 0.00 35 1009.6
20220528140044 86 269 8.0 16.0 0.00 0.00 0.00 38 1009.9
20220528134536 85 250 10.0 16.0 0.00 0.00 0.00 36 1010.2
20220528133046 85 274 10.0 16.0 0.00 0.00 0.00 39 1010.5
20220528131531 85 252 7.0 13.0 0.00 0.00 0.00 41 1010.6
20220528130028 84 220 7.0 13.0 0.00 0.00 0.00 42 1010.8
20220528124518 83 239 7.0 15.0 0.00 0.00 0.00 42 1011.2
20220528123031 82 278 4.0 12.0 0.00 0.00 0.00 44 1011.5
20220528121509 82 285 7.0 15.0 0.00 0.00 0.00 44 1011.9